sensor_id;sensor_type;location;lat;lon;timestamp;pressure;altitude;pressure_sealevel;temperature;humidity
34073;BME280;20346;52.702;16.886;2022-12-24T00:01:08;99802.50;;;5.76;90.47
34073;BME280;20346;52.702;16.886;2022-12-24T00:03:53;99808.49;;;5.75;90.48
34073;BME280;20346;52.702;16.886;2022-12-24T00:06:38;99816.17;;;5.77;90.49
34073;BME280;20346;52.702;16.886;2022-12-24T00:09:24;99814.03;;;5.78;90.49
34073;BME280;20346;52.702;16.886;2022-12-24T00:12:09;99808.47;;;5.78;90.48
34073;BME280;20346;52.702;16.886;2022-12-24T00:14:54;99817.89;;;5.76;90.43
34073;BME280;20346;52.702;16.886;2022-12-24T00:17:40;99813.62;;;5.75;90.44
34073;BME280;20346;52.702;16.886;2022-12-24T00:20:25;99811.91;;;5.76;90.44
34073;BME280;20346;52.702;16.886;2022-12-24T00:23:10;99810.20;;;5.76;90.52
34073;BME280;20346;52.702;16.886;2022-12-24T00:25:55;99814.89;;;5.77;90.51
34073;BME280;20346;52.702;16.886;2022-12-24T00:28:41;99819.59;;;5.77;90.47
34073;BME280;20346;52.702;16.886;2022-12-24T00:31:26;99811.06;;;5.75;90.45
34073;BME280;20346;52.702;16.886;2022-12-24T00:34:11;99808.92;;;5.75;90.47
34073;BME280;20346;52.702;16.886;2022-12-24T00:36:56;99815.34;;;5.75;90.46
34073;BME280;20346;52.702;16.886;2022-12-24T00:39:41;99812.36;;;5.74;90.47
34073;BME280;20346;52.702;16.886;2022-12-24T00:42:26;99813.22;;;5.73;90.50
34073;BME280;20346;52.702;16.886;2022-12-24T00:45:12;99813.64;;;5.74;90.52
34073;BME280;20346;52.702;16.886;2022-12-24T00:47:56;99808.98;;;5.72;90.47
34073;BME280;20346;52.702;16.886;2022-12-24T00:50:41;99809.02;;;5.69;90.40
34073;BME280;20346;52.702;16.886;2022-12-24T00:53:27;99803.89;;;5.67;90.48
34073;BME280;20346;52.702;16.886;2022-12-24T00:56:12;99808.19;;;5.65;90.44
34073;BME280;20346;52.702;16.886;2022-12-24T00:58:57;99812.89;;;5.65;90.51
34073;BME280;20346;52.702;16.886;2022-12-24T01:01:42;99809.89;;;5.66;90.48
34073;BME280;20346;52.702;16.886;2022-12-24T01:04:27;99810.77;;;5.63;90.47
34073;BME280;20346;52.702;16.886;2022-12-24T01:07:31;99819.33;;;5.62;90.49
34073;BME280;20346;52.702;16.886;2022-12-24T01:10:18;99809.08;;;5.61;90.53
34073;BME280;20346;52.702;16.886;2022-12-24T01:13:03;99816.36;;;5.60;90.46
34073;BME280;20346;52.702;16.886;2022-12-24T01:15:48;99806.53;;;5.59;90.52
34073;BME280;20346;52.702;16.886;2022-12-24T01:18:33;99809.95;;;5.58;90.45
34073;BME280;20346;52.702;16.886;2022-12-24T01:21:19;99804.44;;;5.54;90.41
34073;BME280;20346;52.702;16.886;2022-12-24T01:24:04;99815.14;;;5.52;90.40
34073;BME280;20346;52.702;16.886;2022-12-24T01:26:50;99822.84;;;5.51;90.43
34073;BME280;20346;52.702;16.886;2022-12-24T01:29:35;99819.00;;;5.51;90.49
34073;BME280;20346;52.702;16.886;2022-12-24T01:32:21;99820.70;;;5.50;90.46
34073;BME280;20346;52.702;16.886;2022-12-24T01:35:07;99817.30;;;5.50;90.45
34073;BME280;20346;52.702;16.886;2022-12-24T01:37:52;99809.18;;;5.49;90.47
34073;BME280;20346;52.702;16.886;2022-12-24T01:40:38;99808.75;;;5.49;90.51
34073;BME280;20346;52.702;16.886;2022-12-24T01:43:42;99809.20;;;5.47;90.46
34073;BME280;20346;52.702;16.886;2022-12-24T01:46:29;99816.90;;;5.46;90.42
34073;BME280;20346;52.702;16.886;2022-12-24T01:49:17;99821.62;;;5.43;90.43
34073;BME280;20346;52.702;16.886;2022-12-24T01:52:06;99824.61;;;5.43;90.48
34073;BME280;20346;52.702;16.886;2022-12-24T01:54:56;99821.62;;;5.43;90.47
34073;BME280;20346;52.702;16.886;2022-12-24T01:57:49;99815.64;;;5.43;90.46
34073;BME280;20346;52.702;16.886;2022-12-24T02:00:34;99813.51;;;5.42;90.49
34073;BME280;20346;52.702;16.886;2022-12-24T02:03:20;99814.36;;;5.43;90.49
34073;BME280;20346;52.702;16.886;2022-12-24T02:06:05;99819.92;;;5.42;90.49
34073;BME280;20346;52.702;16.886;2022-12-24T02:08:51;99820.34;;;5.43;90.49
34073;BME280;20346;52.702;16.886;2022-12-24T02:11:38;99825.47;;;5.43;90.46
34073;BME280;20346;52.702;16.886;2022-12-24T02:14:27;99820.34;;;5.43;90.46
34073;BME280;20346;52.702;16.886;2022-12-24T02:24:12;99822.49;;;5.41;90.49
34073;BME280;20346;52.702;16.886;2022-12-24T02:30:21;99818.69;;;5.36;90.46
34073;BME280;20346;52.702;16.886;2022-12-24T02:39:19;99825.13;;;5.31;90.48
34073;BME280;20346;52.702;16.886;2022-12-24T02:42:09;99820.86;;;5.30;90.46
34073;BME280;20346;52.702;16.886;2022-12-24T02:45:02;99821.29;;;5.30;90.47
34073;BME280;20346;52.702;16.886;2022-12-24T02:47:51;99827.28;;;5.29;90.45
34073;BME280;20346;52.702;16.886;2022-12-24T02:50:36;99824.30;;;5.28;90.43
34073;BME280;20346;52.702;16.886;2022-12-24T02:53:21;99823.88;;;5.25;90.41
34073;BME280;20346;52.702;16.886;2022-12-24T02:56:19;99831.59;;;5.24;90.39
34073;BME280;20346;52.702;16.886;2022-12-24T03:05:50;99832.53;;;5.15;90.36
34073;BME280;20346;52.702;16.886;2022-12-24T03:11:27;99835.13;;;5.11;90.37
34073;BME280;20346;52.702;16.886;2022-12-24T03:14:13;99843.23;;;5.12;90.42
34073;BME280;20346;52.702;16.886;2022-12-24T03:16:58;99841.97;;;5.09;90.34
34073;BME280;20346;52.702;16.886;2022-12-24T03:19:45;99841.13;;;5.07;90.36
34073;BME280;20346;52.702;16.886;2022-12-24T03:22:33;99844.55;;;5.04;90.35
34073;BME280;20346;52.702;16.886;2022-12-24T03:25:19;99843.27;;;5.04;90.38
34073;BME280;20346;52.702;16.886;2022-12-24T03:28:06;99850.11;;;5.04;90.38
34073;BME280;20346;52.702;16.886;2022-12-24T03:30:53;99851.81;;;5.05;90.41
34073;BME280;20346;52.702;16.886;2022-12-24T03:33:39;99853.52;;;5.04;90.41
34073;BME280;20346;52.702;16.886;2022-12-24T03:36:24;99852.67;;;5.04;90.39
34073;BME280;20346;52.702;16.886;2022-12-24T03:39:10;99846.27;;;5.04;90.41
34073;BME280;20346;52.702;16.886;2022-12-24T03:41:54;99847.55;;;5.02;90.41
34073;BME280;20346;52.702;16.886;2022-12-24T03:44:39;99858.23;;;5.02;90.38
34073;BME280;20346;52.702;16.886;2022-12-24T03:47:25;99860.81;;;4.98;90.34
34073;BME280;20346;52.702;16.886;2022-12-24T03:50:10;99857.41;;;4.96;90.39
34073;BME280;20346;52.702;16.886;2022-12-24T03:52:55;99859.98;;;4.95;90.38
34073;BME280;20346;52.702;16.886;2022-12-24T03:55:40;99860.83;;;4.95;90.46
34073;BME280;20346;52.702;16.886;2022-12-24T03:58:25;99869.80;;;4.95;90.44
34073;BME280;20346;52.702;16.886;2022-12-24T04:01:10;99871.94;;;4.94;90.43
34073;BME280;20346;52.702;16.886;2022-12-24T04:03:55;99875.34;;;4.95;90.48
34073;BME280;20346;52.702;16.886;2022-12-24T04:06:40;99881.32;;;4.95;90.46
34073;BME280;20346;52.702;16.886;2022-12-24T04:09:25;99878.77;;;4.94;90.48
34073;BME280;20346;52.702;16.886;2022-12-24T04:12:10;99878.35;;;4.91;90.44
34073;BME280;20346;52.702;16.886;2022-12-24T04:14:56;99880.91;;;4.93;90.54
34073;BME280;20346;52.702;16.886;2022-12-24T04:17:41;99879.20;;;4.93;90.58
34073;BME280;20346;52.702;16.886;2022-12-24T04:20:26;99882.62;;;4.92;90.49
34073;BME280;20346;52.702;16.886;2022-12-24T04:23:11;99888.16;;;4.93;90.53
34073;BME280;20346;52.702;16.886;2022-12-24T04:26:02;99888.61;;;4.90;90.41
34073;BME280;20346;52.702;16.886;2022-12-24T04:28:48;99889.47;;;4.89;90.52
34073;BME280;20346;52.702;16.886;2022-12-24T04:31:33;99893.75;;;4.85;90.42
34073;BME280;20346;52.702;16.886;2022-12-24T04:34:18;99901.02;;;4.84;90.42
34073;BME280;20346;52.702;16.886;2022-12-24T04:37:04;99898.46;;;4.81;90.45
34073;BME280;20346;52.702;16.886;2022-12-24T04:39:49;99902.73;;;4.81;90.46
34073;BME280;20346;52.702;16.886;2022-12-24T04:42:34;99899.75;;;4.78;90.45
34073;BME280;20346;52.702;16.886;2022-12-24T04:45:19;99901.45;;;4.79;90.47
34073;BME280;20346;52.702;16.886;2022-12-24T04:48:04;99902.33;;;4.75;90.38
34073;BME280;20346;52.702;16.886;2022-12-24T04:50:50;99903.61;;;4.74;90.44
34073;BME280;20346;52.702;16.886;2022-12-24T04:53:35;99908.30;;;4.74;90.46
34073;BME280;20346;52.702;16.886;2022-12-24T04:56:23;99906.18;;;4.72;90.44
34073;BME280;20346;52.702;16.886;2022-12-24T04:59:10;99905.76;;;4.71;90.46
34073;BME280;20346;52.702;16.886;2022-12-24T05:01:55;99908.31;;;4.73;90.47
34073;BME280;20346;52.702;16.886;2022-12-24T05:04:40;99905.32;;;4.73;90.43
34073;BME280;20346;52.702;16.886;2022-12-24T05:07:25;99913.48;;;4.67;90.30
34073;BME280;20346;52.702;16.886;2022-12-24T05:10:10;99921.61;;;4.61;90.37
34073;BME280;20346;52.702;16.886;2022-12-24T05:12:55;99921.61;;;4.60;90.33
34073;BME280;20346;52.702;16.886;2022-12-24T05:15:40;99918.63;;;4.57;90.31
34073;BME280;20346;52.702;16.886;2022-12-24T05:18:28;99924.19;;;4.55;90.32
34073;BME280;20346;52.702;16.886;2022-12-24T05:21:15;99924.19;;;4.55;90.41
34073;BME280;20346;52.702;16.886;2022-12-24T05:24:02;99923.34;;;4.53;90.36
34073;BME280;20346;52.702;16.886;2022-12-24T05:27:06;99920.35;;;4.52;90.35
34073;BME280;20346;52.702;16.886;2022-12-24T05:29:51;99919.92;;;4.54;90.44
34073;BME280;20346;52.702;16.886;2022-12-24T05:32:36;99928.46;;;4.52;90.34
34073;BME280;20346;52.702;16.886;2022-12-24T05:35:21;99939.13;;;4.53;90.35
34073;BME280;20346;52.702;16.886;2022-12-24T05:38:06;99938.27;;;4.54;90.37
34073;BME280;20346;52.702;16.886;2022-12-24T05:40:52;99939.13;;;4.53;90.35
34073;BME280;20346;52.702;16.886;2022-12-24T05:43:37;99952.78;;;4.55;90.36
34073;BME280;20346;52.702;16.886;2022-12-24T05:46:23;99962.16;;;4.54;90.35
34073;BME280;20346;52.702;16.886;2022-12-24T05:49:09;99957.90;;;4.55;90.38
34073;BME280;20346;52.702;16.886;2022-12-24T05:51:53;99956.61;;;4.56;90.38
34073;BME280;20346;52.702;16.886;2022-12-24T05:54:39;99960.03;;;4.57;90.31
34073;BME280;20346;52.702;16.886;2022-12-24T05:57:24;99962.59;;;4.57;90.31
34073;BME280;20346;52.702;16.886;2022-12-24T06:00:10;99971.13;;;4.56;90.24
34073;BME280;20346;52.702;16.886;2022-12-24T06:02:55;99975.81;;;4.55;90.30
34073;BME280;20346;52.702;16.886;2022-12-24T06:05:40;99980.52;;;4.54;90.25
34073;BME280;20346;52.702;16.886;2022-12-24T06:08:26;99979.66;;;4.53;90.28
34073;BME280;20346;52.702;16.886;2022-12-24T06:11:14;99981.38;;;4.53;90.25
34073;BME280;20346;52.702;16.886;2022-12-24T06:14:00;99990.33;;;4.51;90.18
34073;BME280;20346;52.702;16.886;2022-12-24T06:16:45;99993.32;;;4.51;90.20
34073;BME280;20346;52.702;16.886;2022-12-24T06:19:30;99997.59;;;4.50;90.21
34073;BME280;20346;52.702;16.886;2022-12-24T06:22:15;99998.44;;;4.45;90.07
34073;BME280;20346;52.702;16.886;2022-12-24T06:25:01;100001.86;;;4.42;90.15
34073;BME280;20346;52.702;16.886;2022-12-24T06:27:46;100000.58;;;4.42;90.21
34073;BME280;20346;52.702;16.886;2022-12-24T06:30:31;100000.58;;;4.42;90.23
34073;BME280;20346;52.702;16.886;2022-12-24T06:33:16;100008.69;;;4.40;90.18
34073;BME280;20346;52.702;16.886;2022-12-24T06:36:07;100012.95;;;4.38;90.12
34073;BME280;20346;52.702;16.886;2022-12-24T06:38:54;100021.06;;;4.36;90.08
34073;BME280;20346;52.702;16.886;2022-12-24T06:41:39;100022.77;;;4.31;90.08
34073;BME280;20346;52.702;16.886;2022-12-24T06:44:24;100031.30;;;4.28;90.04
34073;BME280;20346;52.702;16.886;2022-12-24T06:47:10;100030.87;;;4.27;90.07
34073;BME280;20346;52.702;16.886;2022-12-24T06:49:55;100039.83;;;4.27;90.10
34073;BME280;20346;52.702;16.886;2022-12-24T06:52:40;100043.66;;;4.29;90.12
34073;BME280;20346;52.702;16.886;2022-12-24T06:55:25;100046.22;;;4.27;90.09
34073;BME280;20346;52.702;16.886;2022-12-24T06:58:10;100050.91;;;4.29;90.15
34073;BME280;20346;52.702;16.886;2022-12-24T07:00:55;100055.61;;;4.28;90.12
34073;BME280;20346;52.702;16.886;2022-12-24T07:03:41;100055.61;;;4.30;90.19
34073;BME280;20346;52.702;16.886;2022-12-24T07:06:28;100061.16;;;4.29;90.11
34073;BME280;20346;52.702;16.886;2022-12-24T07:09:13;100073.95;;;4.28;90.07
34073;BME280;20346;52.702;16.886;2022-12-24T07:11:58;100080.77;;;4.26;90.01
34073;BME280;20346;52.702;16.886;2022-12-24T07:14:43;100085.46;;;4.26;90.07
34073;BME280;20346;52.702;16.886;2022-12-24T07:17:28;100087.16;;;4.26;90.01
34073;BME280;20346;52.702;16.886;2022-12-24T07:20:13;100091.00;;;4.26;90.07
34073;BME280;20346;52.702;16.886;2022-12-24T07:22:58;100098.69;;;4.27;90.11
34073;BME280;20346;52.702;16.886;2022-12-24T07:25:43;100102.95;;;4.25;90.04
34073;BME280;20346;52.702;16.886;2022-12-24T07:28:29;100108.07;;;4.27;90.09
34073;BME280;20346;52.702;16.886;2022-12-24T07:31:14;100108.07;;;4.28;90.09
34073;BME280;20346;52.702;16.886;2022-12-24T07:33:59;100110.20;;;4.27;90.05
34073;BME280;20346;52.702;16.886;2022-12-24T07:36:44;100115.33;;;4.30;90.09
34073;BME280;20346;52.702;16.886;2022-12-24T07:39:29;100110.64;;;4.33;90.21
34073;BME280;20346;52.702;16.886;2022-12-24T07:42:14;100122.16;;;4.35;90.12
34073;BME280;20346;52.702;16.886;2022-12-24T07:44:59;100125.56;;;4.33;90.04
34073;BME280;20346;52.702;16.886;2022-12-24T07:47:44;100139.22;;;4.34;90.04
34073;BME280;20346;52.702;16.886;2022-12-24T07:50:29;100141.78;;;4.36;90.07
34073;BME280;20346;52.702;16.886;2022-12-24T07:53:14;100149.45;;;4.36;90.06
34073;BME280;20346;52.702;16.886;2022-12-24T07:55:59;100148.61;;;4.37;90.03
34073;BME280;20346;52.702;16.886;2022-12-24T07:58:44;100152.45;;;4.38;90.06
34073;BME280;20346;52.702;16.886;2022-12-24T08:01:29;100153.73;;;4.41;90.12
34073;BME280;20346;52.702;16.886;2022-12-24T08:04:15;100162.70;;;4.43;90.05
34073;BME280;20346;52.702;16.886;2022-12-24T08:07:00;100165.69;;;4.45;90.09
34073;BME280;20346;52.702;16.886;2022-12-24T08:09:47;100169.53;;;4.50;90.13
34073;BME280;20346;52.702;16.886;2022-12-24T08:12:32;100171.67;;;4.52;90.12
34073;BME280;20346;52.702;16.886;2022-12-24T08:15:17;100172.52;;;4.52;90.05
34073;BME280;20346;52.702;16.886;2022-12-24T08:18:02;100171.25;;;4.55;90.07
34073;BME280;20346;52.702;16.886;2022-12-24T08:20:48;100177.23;;;4.57;90.10
34073;BME280;20346;52.702;16.886;2022-12-24T08:23:33;100178.51;;;4.57;90.07
34073;BME280;20346;52.702;16.886;2022-12-24T08:26:18;100182.78;;;4.60;90.11
34073;BME280;20346;52.702;16.886;2022-12-24T08:29:04;100189.61;;;4.64;90.12
34073;BME280;20346;52.702;16.886;2022-12-24T08:31:49;100185.34;;;4.66;90.05
34073;BME280;20346;52.702;16.886;2022-12-24T08:34:34;100182.76;;;4.69;90.07
34073;BME280;20346;52.702;16.886;2022-12-24T08:37:19;100183.19;;;4.70;90.07
34073;BME280;20346;52.702;16.886;2022-12-24T08:40:05;100181.05;;;4.73;90.08
34073;BME280;20346;52.702;16.886;2022-12-24T08:42:50;100194.29;;;4.74;89.98
34073;BME280;20346;52.702;16.886;2022-12-24T08:45:37;100204.11;;;4.73;89.98
34073;BME280;20346;52.702;16.886;2022-12-24T08:48:22;100206.23;;;4.69;89.89
34073;BME280;20346;52.702;16.886;2022-12-24T08:51:08;100215.62;;;4.70;90.03
34073;BME280;20346;52.702;16.886;2022-12-24T08:53:54;100214.77;;;4.71;89.99
34073;BME280;20346;52.702;16.886;2022-12-24T08:56:39;100220.33;;;4.72;90.03
34073;BME280;20346;52.702;16.886;2022-12-24T08:59:24;100226.30;;;4.72;89.97
34073;BME280;20346;52.702;16.886;2022-12-24T09:02:10;100231.41;;;4.69;89.91
34073;BME280;20346;52.702;16.886;2022-12-24T09:04:55;100236.11;;;4.70;89.97
34073;BME280;20346;52.702;16.886;2022-12-24T09:07:40;100230.99;;;4.71;90.02
34073;BME280;20346;52.702;16.886;2022-12-24T09:10:25;100232.28;;;4.73;90.02
34073;BME280;20346;52.702;16.886;2022-12-24T09:13:10;100227.61;;;4.68;89.91
34073;BME280;20346;52.702;16.886;2022-12-24T09:15:55;100237.84;;;4.68;89.90
34073;BME280;20346;52.702;16.886;2022-12-24T09:18:40;100238.70;;;4.65;89.91
34073;BME280;20346;52.702;16.886;2022-12-24T09:21:25;100243.37;;;4.69;90.02
34073;BME280;20346;52.702;16.886;2022-12-24T09:24:10;100242.09;;;4.72;90.05
34073;BME280;20346;52.702;16.886;2022-12-24T09:26:55;100252.77;;;4.73;90.01
34073;BME280;20346;52.702;16.886;2022-12-24T09:29:41;100251.91;;;4.71;89.93
34073;BME280;20346;52.702;16.886;2022-12-24T09:32:26;100254.89;;;4.69;89.89
34073;BME280;20346;52.702;16.886;2022-12-24T09:35:10;100260.03;;;4.64;89.82
34073;BME280;20346;52.702;16.886;2022-12-24T09:37:56;100259.61;;;4.64;89.91
34073;BME280;20346;52.702;16.886;2022-12-24T09:40:47;100266.00;;;4.61;89.87
34073;BME280;20346;52.702;16.886;2022-12-24T09:43:35;100269.00;;;4.64;89.95
34073;BME280;20346;52.702;16.886;2022-12-24T09:46:34;100271.56;;;4.67;90.01
34073;BME280;20346;52.702;16.886;2022-12-24T09:49:23;100277.52;;;4.71;90.00
34073;BME280;20346;52.702;16.886;2022-12-24T09:52:13;100276.66;;;4.69;89.88
34073;BME280;20346;52.702;16.886;2022-12-24T09:55:06;100278.80;;;4.69;89.93
34073;BME280;20346;52.702;16.886;2022-12-24T09:58:03;100286.08;;;4.67;89.79
34073;BME280;20346;52.702;16.886;2022-12-24T10:00:50;100286.07;;;4.65;89.89
34073;BME280;20346;52.702;16.886;2022-12-24T10:03:35;100293.73;;;4.68;89.92
34073;BME280;20346;52.702;16.886;2022-12-24T10:19:46;100319.78;;;4.74;89.92
34073;BME280;20346;52.702;16.886;2022-12-24T10:29:28;100340.73;;;4.84;89.99
34073;BME280;20346;52.702;16.886;2022-12-24T10:32:27;100343.30;;;4.87;89.95
34073;BME280;20346;52.702;16.886;2022-12-24T10:38:07;100342.45;;;4.88;89.89
34073;BME280;20346;52.702;16.886;2022-12-24T10:40:54;100341.59;;;4.84;89.82
34073;BME280;20346;52.702;16.886;2022-12-24T10:43:43;100346.72;;;4.86;89.85
34073;BME280;20346;52.702;16.886;2022-12-24T10:46:35;100353.55;;;4.85;89.81
34073;BME280;20346;52.702;16.886;2022-12-24T10:52:30;100358.25;;;4.89;89.87
34073;BME280;20346;52.702;16.886;2022-12-24T10:55:22;100356.12;;;4.88;89.90
34073;BME280;20346;52.702;16.886;2022-12-24T10:58:14;100355.70;;;4.90;89.91
34073;BME280;20346;52.702;16.886;2022-12-24T11:01:00;100356.13;;;4.91;89.91
34073;BME280;20346;52.702;16.886;2022-12-24T11:03:58;100364.25;;;4.95;89.97
34073;BME280;20346;52.702;16.886;2022-12-24T11:06:59;100358.28;;;4.98;89.92
34073;BME280;20346;52.702;16.886;2022-12-24T11:10:00;100330.91;;;4.82;89.81
34073;BME280;20346;52.702;16.886;2022-12-24T11:12:47;100370.66;;;4.94;89.67
34073;BME280;20346;52.702;16.886;2022-12-24T11:15:33;100383.89;;;4.95;89.78
34073;BME280;20346;52.702;16.886;2022-12-24T11:18:18;100386.47;;;4.98;89.83
34073;BME280;20346;52.702;16.886;2022-12-24T11:21:04;100384.75;;;4.95;89.71
34073;BME280;20346;52.702;16.886;2022-12-24T11:23:52;100386.89;;;4.97;89.82
34073;BME280;20346;52.702;16.886;2022-12-24T11:26:42;100389.45;;;4.97;89.77
34073;BME280;20346;52.702;16.886;2022-12-24T11:29:27;100393.73;;;5.00;89.83
34073;BME280;20346;52.702;16.886;2022-12-24T11:32:22;100394.59;;;5.01;89.75
34073;BME280;20346;52.702;16.886;2022-12-24T11:35:16;100391.59;;;5.01;89.78
34073;BME280;20346;52.702;16.886;2022-12-24T11:41:02;100391.59;;;4.99;89.69
34073;BME280;20346;52.702;16.886;2022-12-24T11:43:58;100397.55;;;4.94;89.64
34073;BME280;20346;52.702;16.886;2022-12-24T11:46:44;100400.97;;;4.93;89.72
34073;BME280;20346;52.702;16.886;2022-12-24T11:49:31;100409.09;;;4.95;89.76
34073;BME280;20346;52.702;16.886;2022-12-24T11:52:22;100408.66;;;4.93;89.64
34073;BME280;20346;52.702;16.886;2022-12-24T11:58:20;100414.17;;;4.86;89.67
34073;BME280;20346;52.702;16.886;2022-12-24T12:04:29;100419.30;;;4.85;89.67
34073;BME280;20346;52.702;16.886;2022-12-24T12:07:30;100418.00;;;4.82;89.67
34073;BME280;20346;52.702;16.886;2022-12-24T12:10:21;100415.44;;;4.80;89.68
34073;BME280;20346;52.702;16.886;2022-12-24T12:13:14;100420.14;;;4.82;89.70
34073;BME280;20346;52.702;16.886;2022-12-24T12:16:20;100424.42;;;4.85;89.72
34073;BME280;20346;52.702;16.886;2022-12-24T12:19:07;100430.38;;;4.82;89.67
34073;BME280;20346;52.702;16.886;2022-12-24T12:21:54;100436.38;;;4.84;89.67
34073;BME280;20346;52.702;16.886;2022-12-24T12:24:42;100443.19;;;4.81;89.61
34073;BME280;20346;52.702;16.886;2022-12-24T12:27:36;100446.16;;;4.79;89.58
34073;BME280;20346;52.702;16.886;2022-12-24T12:30:24;100446.59;;;4.80;89.71
34073;BME280;20346;52.702;16.886;2022-12-24T12:36:28;100435.47;;;4.75;89.50
34073;BME280;20346;52.702;16.886;2022-12-24T12:39:14;100436.32;;;4.74;89.55
34073;BME280;20346;52.702;16.886;2022-12-24T12:42:31;100441.02;;;4.73;89.59
34073;BME280;20346;52.702;16.886;2022-12-24T12:45:32;100450.41;;;4.74;89.62
34073;BME280;20346;52.702;16.886;2022-12-24T12:49:13;100442.73;;;4.75;89.64
34073;BME280;20346;52.702;16.886;2022-12-24T12:52:01;100441.86;;;4.73;89.58
34073;BME280;20346;52.702;16.886;2022-12-24T12:58:40;100452.12;;;4.75;89.62
34073;BME280;20346;52.702;16.886;2022-12-24T13:08:09;100472.60;;;4.73;89.56
34073;BME280;20346;52.702;16.886;2022-12-24T13:20:29;100490.92;;;4.68;89.37
34073;BME280;20346;52.702;16.886;2022-12-24T13:23:20;100493.92;;;4.64;89.43
34073;BME280;20346;52.702;16.886;2022-12-24T13:26:12;100495.19;;;4.61;89.29
34073;BME280;20346;52.702;16.886;2022-12-24T13:44:24;100521.19;;;4.56;89.46
34073;BME280;20346;52.702;16.886;2022-12-24T13:47:17;100519.05;;;4.56;89.36
34073;BME280;20346;52.702;16.886;2022-12-24T13:50:27;100517.76;;;4.54;89.37
34073;BME280;20346;52.702;16.886;2022-12-24T13:53:33;100515.19;;;4.53;89.34
34073;BME280;20346;52.702;16.886;2022-12-24T13:56:27;100512.18;;;4.50;89.38
34073;BME280;20346;52.702;16.886;2022-12-24T13:59:22;100516.45;;;4.50;89.38
34073;BME280;20346;52.702;16.886;2022-12-24T14:02:18;100521.14;;;4.50;89.39
34073;BME280;20346;52.702;16.886;2022-12-24T14:05:07;100530.97;;;4.52;89.42
34073;BME280;20346;52.702;16.886;2022-12-24T14:07:55;100528.86;;;4.55;89.45
34073;BME280;20346;52.702;16.886;2022-12-24T14:10:55;100533.13;;;4.56;89.42
34073;BME280;20346;52.702;16.886;2022-12-24T14:16:51;100524.61;;;4.57;89.35
34073;BME280;20346;52.702;16.886;2022-12-24T14:19:40;100530.16;;;4.58;89.41
34073;BME280;20346;52.702;16.886;2022-12-24T14:22:39;100530.17;;;4.59;89.40
34073;BME280;20346;52.702;16.886;2022-12-24T14:25:26;100539.55;;;4.57;89.35
34073;BME280;20346;52.702;16.886;2022-12-24T14:28:14;100549.78;;;4.57;89.31
34073;BME280;20346;52.702;16.886;2022-12-24T14:31:04;100554.90;;;4.56;89.35
34073;BME280;20346;52.702;16.886;2022-12-24T14:33:53;100551.48;;;4.55;89.33
34073;BME280;20346;52.702;16.886;2022-12-24T14:36:53;100558.73;;;4.54;89.32
34073;BME280;20346;52.702;16.886;2022-12-24T14:39:41;100570.69;;;4.55;89.37
34073;BME280;20346;52.702;16.886;2022-12-24T14:42:48;100574.09;;;4.56;89.34
34073;BME280;20346;52.702;16.886;2022-12-24T14:54:58;100603.94;;;4.51;89.21
34073;BME280;20346;52.702;16.886;2022-12-24T14:57:43;100601.36;;;4.49;89.25
34073;BME280;20346;52.702;16.886;2022-12-24T15:00:29;100602.17;;;4.45;89.25
34073;BME280;20346;52.702;16.886;2022-12-24T15:03:16;100594.92;;;4.45;89.32
34073;BME280;20346;52.702;16.886;2022-12-24T15:06:04;100601.77;;;4.47;89.36
34073;BME280;20346;52.702;16.886;2022-12-24T15:08:52;100601.77;;;4.47;89.36
34073;BME280;20346;52.702;16.886;2022-12-24T15:11:37;100606.45;;;4.46;89.33
34073;BME280;20346;52.702;16.886;2022-12-24T15:14:24;100607.28;;;4.44;89.26
34073;BME280;20346;52.702;16.886;2022-12-24T15:17:12;100614.96;;;4.44;89.25
34073;BME280;20346;52.702;16.886;2022-12-24T15:19:58;100615.36;;;4.40;89.18
34073;BME280;20346;52.702;16.886;2022-12-24T15:22:46;100621.74;;;4.39;89.24
34073;BME280;20346;52.702;16.886;2022-12-24T15:25:36;100622.16;;;4.38;89.23
34073;BME280;20346;52.702;16.886;2022-12-24T15:28:22;100625.58;;;4.39;89.29
34073;BME280;20346;52.702;16.886;2022-12-24T15:31:10;100628.14;;;4.39;89.25
34073;BME280;20346;52.702;16.886;2022-12-24T15:34:00;100630.27;;;4.38;89.19
34073;BME280;20346;52.702;16.886;2022-12-24T15:36:45;100634.06;;;4.33;89.08
34073;BME280;20346;52.702;16.886;2022-12-24T15:39:30;100635.28;;;4.27;89.12
34073;BME280;20346;52.702;16.886;2022-12-24T15:42:17;100639.93;;;4.23;89.10
34073;BME280;20346;52.702;16.886;2022-12-24T15:48:09;100643.34;;;4.23;89.21
34073;BME280;20346;52.702;16.886;2022-12-24T15:50:56;100642.06;;;4.23;89.19
34073;BME280;20346;52.702;16.886;2022-12-24T15:53:43;100648.03;;;4.22;89.17
34073;BME280;20346;52.702;16.886;2022-12-24T15:56:38;100655.70;;;4.22;89.20
34073;BME280;20346;52.702;16.886;2022-12-24T15:59:31;100659.11;;;4.21;89.14
34073;BME280;20346;52.702;16.886;2022-12-24T16:05:34;100671.89;;;4.20;89.14
34073;BME280;20346;52.702;16.886;2022-12-24T16:08:24;100670.17;;;4.19;89.12
34073;BME280;20346;52.702;16.886;2022-12-24T16:11:17;100671.02;;;4.18;89.12
34073;BME280;20346;52.702;16.886;2022-12-24T16:14:13;100679.11;;;4.17;89.08
34073;BME280;20346;52.702;16.886;2022-12-24T16:17:01;100680.81;;;4.17;89.11
34073;BME280;20346;52.702;16.886;2022-12-24T16:19:49;100688.50;;;4.15;89.13
34073;BME280;20346;52.702;16.886;2022-12-24T16:22:37;100693.19;;;4.14;89.06
34073;BME280;20346;52.702;16.886;2022-12-24T16:25:26;100690.59;;;4.11;89.02
34073;BME280;20346;52.702;16.886;2022-12-24T16:28:12;100693.11;;;4.08;89.02
34073;BME280;20346;52.702;16.886;2022-12-24T16:30:57;100696.52;;;4.07;89.08
34073;BME280;20346;52.702;16.886;2022-12-24T16:33:43;100703.37;;;4.10;89.18
34073;BME280;20346;52.702;16.886;2022-12-24T16:36:30;100696.14;;;4.12;89.16
34073;BME280;20346;52.702;16.886;2022-12-24T16:39:15;100691.06;;;4.15;89.21
34073;BME280;20346;52.702;16.886;2022-12-24T16:42:08;100688.92;;;4.18;89.18